Apodaca, New Mexico
Current Conditions -  °F | °C
As of 4:35 PM on Thursday 18 Dec 2014 (Local Time) from KSKX Reporting Station
Broken Clouds Broken Clouds  
Wind Chill: 24°   Ceiling: 3600
Heat Index: 30°   Visibility: 10mi
Dew Point: 25°   Wind: 6mph
Humidity: 80%   Direction: 360°N
Pressure: 30.08"   Gusts: NA
Location:  36.1644°N, 105.863°W
Report Text: KSKX 182335Z AUTO 36005KT 10SM BKN036 M01/M04 A3008 RMK AO1
Loading
Personal Weather Stations






























Interactive Weather Map New forecast layout! Learn more

10-Day Weather Forecast

Advertisements
Track Severe Weather on mobile